Hlavní strana
METAR-TAF:

METAR-TAF

Letiště :

Constanţa, Rumunsko

zeměpisná šířka: 44-20N, zeměpisná délka: 028-26E, výška: 97 m

Aktuální stav počasí

Zpráva byla vytvořena před 14 minutami, v 02:30 UTC
Severoseverovýchodní vítr 13 kt
Teplota 3°C
Vlhkost vzduchu 70%
Tlak 1030 hPa
Viditelnost 10 km a více
Žádná oblačnost pod 1500 m, nevyskytují se cumulonimby.

METAR: LRCK 060230Z 02013KT CAVOK 03/M02 Q1030 NOSIG

Čas: 05:44 (02:44 UTC)

Předpověď počasí

Zpráva byla vytvořena před 3 hodinami a 44 minutami, v 23:00 UTC
Předpověď platná od 06 v 00 UTC do 06 v 24 UTC
Severovýchodní vítr 12 kt
Viditelnost 10 km a více
Žádná oblačnost pod 1500 m, nevyskytují se cumulonimby.
Dočasný
od 06 v 08 UTC do 06 v 15 UTC
Východoseverovýchodní vítr 25 kt s nárazy do 35 kt

TAF: LRCK 052300Z 0600/0624 05012KT CAVOK TEMPO 0608/0615 06025G35KT

Stav a předpovědi počasí z více než 4 000 letišť (zprávy METAR a TAF).

Červené a žluté tečky na mapě představují dostupné meteorologické stanice.

Když kurzor umístíte na tečku, zobrazí se název stanice.

Pak kliknutím zobrazíte stav a předpověď počasí.

Chcete-li změnit mapu, kliknutím na zelené tlačítko se znaménkem +mapu přiblížíte, kliknutím na zelené tlačítko se znaménkem – mapu oddálíte a kliknutím na zelené šipky přejdete na sousední mapy.


METAR-TAF: